sensor_id;sensor_type;location;lat;lon;timestamp;pressure;altitude;pressure_sealevel;temperature;humidity
71735;BME280;59577;52.122;5.406;2023-05-16T00:00:13;101991.03;;;10.39;77.58
71735;BME280;59577;52.122;5.406;2023-05-16T00:02:40;101998.84;;;10.32;77.69
71735;BME280;59577;52.122;5.406;2023-05-16T00:05:07;101999.75;;;10.27;78.03
71735;BME280;59577;52.122;5.406;2023-05-16T00:07:36;102008.34;;;10.21;78.28
71735;BME280;59577;52.122;5.406;2023-05-16T00:10:02;102000.09;;;10.17;77.92
71735;BME280;59577;52.122;5.406;2023-05-16T00:12:29;102003.09;;;10.15;77.92
71735;BME280;59577;52.122;5.406;2023-05-16T00:14:55;102004.72;;;10.16;78.39
71735;BME280;59577;52.122;5.406;2023-05-16T00:17:22;102006.63;;;10.16;78.24
71735;BME280;59577;52.122;5.406;2023-05-16T00:19:49;102005.34;;;10.13;78.07
71735;BME280;59577;52.122;5.406;2023-05-16T00:22:19;102006.78;;;10.11;78.04
71735;BME280;59577;52.122;5.406;2023-05-16T00:24:46;102007.09;;;10.09;78.31
71735;BME280;59577;52.122;5.406;2023-05-16T00:27:12;102005.81;;;10.07;78.30
71735;BME280;59577;52.122;5.406;2023-05-16T00:29:39;101998.53;;;10.07;78.05
71735;BME280;59577;52.122;5.406;2023-05-16T00:32:06;101999.16;;;10.04;77.58
71735;BME280;59577;52.122;5.406;2023-05-16T00:34:34;102001.38;;;10.02;77.81
71735;BME280;59577;52.122;5.406;2023-05-16T00:37:01;102006.78;;;10.02;77.88
71735;BME280;59577;52.122;5.406;2023-05-16T00:39:28;101997.88;;;10.02;77.71
71735;BME280;59577;52.122;5.406;2023-05-16T00:41:54;102008.53;;;9.98;77.53
71735;BME280;59577;52.122;5.406;2023-05-16T00:44:22;102010.28;;;9.94;77.16
71735;BME280;59577;52.122;5.406;2023-05-16T00:46:49;102008.84;;;9.88;77.15
71735;BME280;59577;52.122;5.406;2023-05-16T00:49:16;102005.19;;;9.84;77.40
71735;BME280;59577;52.122;5.406;2023-05-16T00:51:42;102007.09;;;9.74;77.31
71735;BME280;59577;52.122;5.406;2023-05-16T00:54:09;102010.59;;;9.66;77.10
71735;BME280;59577;52.122;5.406;2023-05-16T00:56:36;102009.13;;;9.60;77.16
71735;BME280;59577;52.122;5.406;2023-05-16T00:59:03;102006.28;;;9.56;77.98
71735;BME280;59577;52.122;5.406;2023-05-16T01:01:29;102009.28;;;9.55;78.05
71735;BME280;59577;52.122;5.406;2023-05-16T01:03:57;102012.47;;;9.48;77.76
71735;BME280;59577;52.122;5.406;2023-05-16T01:06:24;102008.31;;;9.42;77.59
71735;BME280;59577;52.122;5.406;2023-05-16T01:08:50;102009.72;;;9.39;77.64
71735;BME280;59577;52.122;5.406;2023-05-16T01:11:38;102005.91;;;9.32;78.07
71735;BME280;59577;52.122;5.406;2023-05-16T01:14:31;102007.34;;;9.29;77.66
71735;BME280;59577;52.122;5.406;2023-05-16T01:19:59;102007.47;;;9.15;77.83
71735;BME280;59577;52.122;5.406;2023-05-16T01:22:45;102008.06;;;9.12;78.11
71735;BME280;59577;52.122;5.406;2023-05-16T01:27:58;102017.09;;;9.08;78.05
71735;BME280;59577;52.122;5.406;2023-05-16T01:30:24;102017.09;;;9.08;77.95
71735;BME280;59577;52.122;5.406;2023-05-16T01:32:51;102016.81;;;9.09;77.76
71735;BME280;59577;52.122;5.406;2023-05-16T01:35:18;102019.97;;;9.11;77.62
71735;BME280;59577;52.122;5.406;2023-05-16T01:41:03;102014.56;;;9.11;78.21
71735;BME280;59577;52.122;5.406;2023-05-16T01:43:38;102025.38;;;9.11;77.78
71735;BME280;59577;52.122;5.406;2023-05-16T01:46:13;102013.78;;;9.11;78.08
71735;BME280;59577;52.122;5.406;2023-05-16T01:49:04;102020.13;;;9.06;77.59
71735;BME280;59577;52.122;5.406;2023-05-16T01:51:36;102021.38;;;9.00;78.48
71735;BME280;59577;52.122;5.406;2023-05-16T01:54:10;102025.00;;;8.95;78.65
71735;BME280;59577;52.122;5.406;2023-05-16T01:56:39;102018.31;;;8.93;78.52
71735;BME280;59577;52.122;5.406;2023-05-16T01:59:12;102028.16;;;8.89;78.75
71735;BME280;59577;52.122;5.406;2023-05-16T02:01:39;102017.78;;;8.82;78.55
71735;BME280;59577;52.122;5.406;2023-05-16T02:04:06;102024.91;;;8.78;78.34
71735;BME280;59577;52.122;5.406;2023-05-16T02:06:33;102024.44;;;8.76;78.10
71735;BME280;59577;52.122;5.406;2023-05-16T02:09:00;102025.84;;;8.73;78.03
71735;BME280;59577;52.122;5.406;2023-05-16T02:11:26;102033.75;;;8.70;78.65
71735;BME280;59577;52.122;5.406;2023-05-16T02:13:52;102033.28;;;8.68;78.44
71735;BME280;59577;52.122;5.406;2023-05-16T02:16:19;102039.59;;;8.63;78.51
71735;BME280;59577;52.122;5.406;2023-05-16T02:18:46;102040.53;;;8.58;79.24
71735;BME280;59577;52.122;5.406;2023-05-16T02:21:12;102041.63;;;8.57;79.11
71735;BME280;59577;52.122;5.406;2023-05-16T02:23:39;102042.72;;;8.56;79.11
71735;BME280;59577;52.122;5.406;2023-05-16T02:26:06;102042.25;;;8.54;79.53
71735;BME280;59577;52.122;5.406;2023-05-16T02:28:32;102041.88;;;8.47;79.29
71735;BME280;59577;52.122;5.406;2023-05-16T02:30:59;102043.97;;;8.50;79.52
71735;BME280;59577;52.122;5.406;2023-05-16T02:33:28;102039.84;;;8.53;79.29
71735;BME280;59577;52.122;5.406;2023-05-16T02:35:54;102043.66;;;8.52;79.33
71735;BME280;59577;52.122;5.406;2023-05-16T02:38:21;102040.66;;;8.53;79.67
71735;BME280;59577;52.122;5.406;2023-05-16T02:40:48;102044.94;;;8.54;79.14
71735;BME280;59577;52.122;5.406;2023-05-16T02:43:14;102047.34;;;8.56;79.47
71735;BME280;59577;52.122;5.406;2023-05-16T02:45:41;102057.03;;;8.57;79.36
71735;BME280;59577;52.122;5.406;2023-05-16T02:48:07;102049.06;;;8.52;79.22
71735;BME280;59577;52.122;5.406;2023-05-16T02:50:36;102049.66;;;8.49;79.17
71735;BME280;59577;52.122;5.406;2023-05-16T02:53:02;102052.50;;;8.43;79.26
71735;BME280;59577;52.122;5.406;2023-05-16T02:55:29;102048.19;;;8.42;79.69
71735;BME280;59577;52.122;5.406;2023-05-16T02:57:56;102050.97;;;8.37;79.70
71735;BME280;59577;52.122;5.406;2023-05-16T03:00:22;102059.41;;;8.36;80.17
71735;BME280;59577;52.122;5.406;2023-05-16T03:02:50;102063.97;;;8.35;80.19
71735;BME280;59577;52.122;5.406;2023-05-16T03:05:16;102062.22;;;8.31;80.54
71735;BME280;59577;52.122;5.406;2023-05-16T03:07:43;102065.81;;;8.26;80.17
71735;BME280;59577;52.122;5.406;2023-05-16T03:10:10;102063.72;;;8.23;80.50
71735;BME280;59577;52.122;5.406;2023-05-16T03:12:36;102070.03;;;8.18;81.06
71735;BME280;59577;52.122;5.406;2023-05-16T03:15:03;102069.03;;;8.14;81.57
71735;BME280;59577;52.122;5.406;2023-05-16T03:17:30;102065.38;;;8.10;80.94
71735;BME280;59577;52.122;5.406;2023-05-16T03:19:56;102073.28;;;8.06;81.61
71735;BME280;59577;52.122;5.406;2023-05-16T03:22:23;102072.56;;;8.01;81.88
71735;BME280;59577;52.122;5.406;2023-05-16T03:24:50;102076.19;;;7.96;81.68
71735;BME280;59577;52.122;5.406;2023-05-16T03:27:16;102076.97;;;7.97;82.14
71735;BME280;59577;52.122;5.406;2023-05-16T03:29:43;102079.00;;;7.91;82.27
71735;BME280;59577;52.122;5.406;2023-05-16T03:32:10;102080.28;;;7.94;82.36
71735;BME280;59577;52.122;5.406;2023-05-16T03:34:37;102087.28;;;7.95;82.49
71735;BME280;59577;52.122;5.406;2023-05-16T03:37:03;102081.06;;;7.94;81.99
71735;BME280;59577;52.122;5.406;2023-05-16T03:39:30;102082.69;;;7.95;82.49
71735;BME280;59577;52.122;5.406;2023-05-16T03:41:56;102081.28;;;7.98;82.57
71735;BME280;59577;52.122;5.406;2023-05-16T03:44:23;102084.47;;;8.00;82.41
71735;BME280;59577;52.122;5.406;2023-05-16T03:46:49;102083.97;;;7.98;82.47
71735;BME280;59577;52.122;5.406;2023-05-16T03:49:16;102088.66;;;7.92;81.98
71735;BME280;59577;52.122;5.406;2023-05-16T03:51:43;102086.59;;;7.89;82.42
71735;BME280;59577;52.122;5.406;2023-05-16T03:54:10;102094.16;;;7.87;81.95
71735;BME280;59577;52.122;5.406;2023-05-16T03:56:37;102103.56;;;7.89;82.25
71735;BME280;59577;52.122;5.406;2023-05-16T03:59:03;102100.88;;;7.89;82.53
71735;BME280;59577;52.122;5.406;2023-05-16T04:01:30;102096.06;;;7.86;82.75
71735;BME280;59577;52.122;5.406;2023-05-16T04:03:56;102095.56;;;7.84;82.72
71735;BME280;59577;52.122;5.406;2023-05-16T04:06:23;102109.34;;;7.83;82.52
71735;BME280;59577;52.122;5.406;2023-05-16T04:08:50;102103.97;;;7.83;82.78
71735;BME280;59577;52.122;5.406;2023-05-16T04:11:16;102106.66;;;7.83;82.23
71735;BME280;59577;52.122;5.406;2023-05-16T04:13:42;102103.97;;;7.83;82.89
71735;BME280;59577;52.122;5.406;2023-05-16T04:16:09;102103.97;;;7.83;82.90
71735;BME280;59577;52.122;5.406;2023-05-16T04:18:35;102111.44;;;7.86;82.96
71735;BME280;59577;52.122;5.406;2023-05-16T04:21:02;102108.47;;;7.87;83.10
71735;BME280;59577;52.122;5.406;2023-05-16T04:23:29;102113.03;;;7.87;82.73
71735;BME280;59577;52.122;5.406;2023-05-16T04:25:55;102117.34;;;7.88;82.65
71735;BME280;59577;52.122;5.406;2023-05-16T04:28:22;102120.72;;;7.94;82.54
71735;BME280;59577;52.122;5.406;2023-05-16T04:30:48;102112.81;;;7.97;83.08
71735;BME280;59577;52.122;5.406;2023-05-16T04:33:16;102125.72;;;8.00;82.36
71735;BME280;59577;52.122;5.406;2023-05-16T04:35:42;102129.09;;;8.06;82.44
71735;BME280;59577;52.122;5.406;2023-05-16T04:38:09;102129.47;;;8.13;82.10
71735;BME280;59577;52.122;5.406;2023-05-16T04:40:35;102123.47;;;8.16;82.02
71735;BME280;59577;52.122;5.406;2023-05-16T04:43:03;102127.66;;;8.22;82.06
71735;BME280;59577;52.122;5.406;2023-05-16T04:45:29;102127.25;;;8.29;81.83
71735;BME280;59577;52.122;5.406;2023-05-16T04:47:56;102132.25;;;8.36;82.26
71735;BME280;59577;52.122;5.406;2023-05-16T04:50:23;102130.44;;;8.45;81.50
71735;BME280;59577;52.122;5.406;2023-05-16T04:52:49;102134.00;;;8.54;81.19
71735;BME280;59577;52.122;5.406;2023-05-16T04:55:16;102130.75;;;8.66;80.99
71735;BME280;59577;52.122;5.406;2023-05-16T04:57:42;102137.63;;;8.72;80.37
71735;BME280;59577;52.122;5.406;2023-05-16T05:00:09;102138.50;;;8.81;80.40
71735;BME280;59577;52.122;5.406;2023-05-16T05:02:37;102141.25;;;8.90;80.23
71735;BME280;59577;52.122;5.406;2023-05-16T05:05:04;102147.66;;;9.03;80.40
71735;BME280;59577;52.122;5.406;2023-05-16T05:07:32;102148.41;;;9.17;80.16
71735;BME280;59577;52.122;5.406;2023-05-16T05:09:58;102147.03;;;9.29;79.15
71735;BME280;59577;52.122;5.406;2023-05-16T05:12:25;102147.88;;;9.38;79.45
71735;BME280;59577;52.122;5.406;2023-05-16T05:14:53;102148.44;;;9.57;79.39
71735;BME280;59577;52.122;5.406;2023-05-16T05:17:21;102140.84;;;9.77;79.63
71735;BME280;59577;52.122;5.406;2023-05-16T05:19:49;102144.09;;;9.96;79.17
71735;BME280;59577;52.122;5.406;2023-05-16T05:22:15;102149.22;;;10.24;78.69
71735;BME280;59577;52.122;5.406;2023-05-16T05:24:42;102152.25;;;11.01;79.01
71735;BME280;59577;52.122;5.406;2023-05-16T05:27:08;102147.34;;;12.73;74.01
71735;BME280;59577;52.122;5.406;2023-05-16T05:29:35;102145.25;;;14.80;67.37
71735;BME280;59577;52.122;5.406;2023-05-16T05:32:02;102149.38;;;16.56;61.59
71735;BME280;59577;52.122;5.406;2023-05-16T05:34:29;102155.25;;;17.93;57.27
71735;BME280;59577;52.122;5.406;2023-05-16T05:36:56;102156.72;;;17.14;56.88
71735;BME280;59577;52.122;5.406;2023-05-16T05:39:23;102168.59;;;16.05;58.15
71735;BME280;59577;52.122;5.406;2023-05-16T05:41:51;102162.75;;;14.38;60.84
71735;BME280;59577;52.122;5.406;2023-05-16T05:44:17;102163.91;;;16.41;60.16
71735;BME280;59577;52.122;5.406;2023-05-16T05:46:44;102163.31;;;19.63;53.11
71735;BME280;59577;52.122;5.406;2023-05-16T05:49:10;102161.22;;;21.57;48.14
71735;BME280;59577;52.122;5.406;2023-05-16T05:51:51;102158.81;;;21.88;45.62
71735;BME280;59577;52.122;5.406;2023-05-16T05:54:18;102164.78;;;21.47;46.89
71735;BME280;59577;52.122;5.406;2023-05-16T05:56:45;102166.81;;;23.23;44.15
71735;BME280;59577;52.122;5.406;2023-05-16T05:59:12;102163.47;;;24.53;40.21
71735;BME280;59577;52.122;5.406;2023-05-16T06:01:38;102161.09;;;25.33;39.19
71735;BME280;59577;52.122;5.406;2023-05-16T06:04:05;102162.41;;;26.32;36.49
71735;BME280;59577;52.122;5.406;2023-05-16T06:06:31;102170.53;;;26.23;36.51
71735;BME280;59577;52.122;5.406;2023-05-16T06:08:58;102167.91;;;26.52;35.82
71735;BME280;59577;52.122;5.406;2023-05-16T06:11:24;102168.31;;;27.20;34.13
71735;BME280;59577;52.122;5.406;2023-05-16T06:13:51;102160.63;;;27.28;34.47
71735;BME280;59577;52.122;5.406;2023-05-16T06:16:18;102177.22;;;27.31;33.53
71735;BME280;59577;52.122;5.406;2023-05-16T06:18:44;102176.75;;;27.49;33.05
71735;BME280;59577;52.122;5.406;2023-05-16T06:21:11;102178.50;;;27.43;32.86
71735;BME280;59577;52.122;5.406;2023-05-16T06:23:37;102178.66;;;27.82;31.56
71735;BME280;59577;52.122;5.406;2023-05-16T06:26:04;102194.84;;;27.87;31.87
71735;BME280;59577;52.122;5.406;2023-05-16T06:28:30;102186.59;;;27.37;31.99
71735;BME280;59577;52.122;5.406;2023-05-16T06:30:57;102186.00;;;27.13;31.37
71735;BME280;59577;52.122;5.406;2023-05-16T06:33:23;102191.84;;;26.66;31.58
71735;BME280;59577;52.122;5.406;2023-05-16T06:35:50;102185.25;;;26.40;32.61
71735;BME280;59577;52.122;5.406;2023-05-16T06:38:18;102188.31;;;25.85;34.19
71735;BME280;59577;52.122;5.406;2023-05-16T06:40:45;102195.56;;;26.19;32.94
71735;BME280;59577;52.122;5.406;2023-05-16T06:43:11;102185.66;;;26.38;33.18
71735;BME280;59577;52.122;5.406;2023-05-16T06:45:38;102187.53;;;27.47;31.93
71735;BME280;59577;52.122;5.406;2023-05-16T06:48:06;102188.22;;;25.89;33.35
71735;BME280;59577;52.122;5.406;2023-05-16T06:50:33;102190.72;;;23.89;35.48
71735;BME280;59577;52.122;5.406;2023-05-16T06:53:01;102191.44;;;23.97;35.34
71735;BME280;59577;52.122;5.406;2023-05-16T06:55:30;102194.50;;;22.45;37.59
71735;BME280;59577;52.122;5.406;2023-05-16T06:57:56;102192.03;;;22.65;39.13
71735;BME280;59577;52.122;5.406;2023-05-16T07:00:23;102200.13;;;22.98;37.84
71735;BME280;59577;52.122;5.406;2023-05-16T07:02:49;102191.50;;;21.86;39.46
71735;BME280;59577;52.122;5.406;2023-05-16T07:05:16;102199.69;;;22.32;38.33
71735;BME280;59577;52.122;5.406;2023-05-16T07:07:43;102204.16;;;21.51;40.65
71735;BME280;59577;52.122;5.406;2023-05-16T07:10:10;102198.91;;;20.92;41.06
71735;BME280;59577;52.122;5.406;2023-05-16T07:12:40;102205.50;;;19.81;42.85
71735;BME280;59577;52.122;5.406;2023-05-16T07:15:07;102202.41;;;18.70;44.78
71735;BME280;59577;52.122;5.406;2023-05-16T07:17:35;102206.06;;;18.17;46.32
71735;BME280;59577;52.122;5.406;2023-05-16T07:20:02;102193.06;;;18.75;45.26
71735;BME280;59577;52.122;5.406;2023-05-16T07:22:31;102210.84;;;20.26;43.62
71735;BME280;59577;52.122;5.406;2023-05-16T07:24:57;102207.88;;;19.38;43.76
71735;BME280;59577;52.122;5.406;2023-05-16T07:27:26;102214.19;;;18.71;46.68
71735;BME280;59577;52.122;5.406;2023-05-16T07:29:53;102211.19;;;20.21;47.15
71735;BME280;59577;52.122;5.406;2023-05-16T07:32:20;102218.69;;;21.73;43.47
71735;BME280;59577;52.122;5.406;2023-05-16T07:34:46;102212.56;;;22.61;41.12
71735;BME280;59577;52.122;5.406;2023-05-16T07:37:13;102208.31;;;22.42;41.12
71735;BME280;59577;52.122;5.406;2023-05-16T07:39:41;102211.03;;;22.45;43.68
71735;BME280;59577;52.122;5.406;2023-05-16T07:42:08;102212.91;;;23.37;41.48
71735;BME280;59577;52.122;5.406;2023-05-16T07:44:34;102210.22;;;23.26;40.54
71735;BME280;59577;52.122;5.406;2023-05-16T07:47:01;102200.31;;;23.81;38.91
71735;BME280;59577;52.122;5.406;2023-05-16T07:49:28;102209.41;;;22.59;38.62
71735;BME280;59577;52.122;5.406;2023-05-16T07:51:54;102209.13;;;22.21;41.10
71735;BME280;59577;52.122;5.406;2023-05-16T07:54:21;102207.88;;;22.50;39.16
71735;BME280;59577;52.122;5.406;2023-05-16T07:56:53;102204.78;;;23.15;40.39
71735;BME280;59577;52.122;5.406;2023-05-16T07:59:20;102206.44;;;23.54;37.52
71735;BME280;59577;52.122;5.406;2023-05-16T08:01:47;102225.72;;;21.99;39.92
71735;BME280;59577;52.122;5.406;2023-05-16T08:04:14;102224.28;;;20.42;41.88
71735;BME280;59577;52.122;5.406;2023-05-16T08:06:40;102232.56;;;19.38;44.22
71735;BME280;59577;52.122;5.406;2023-05-16T08:09:07;102229.56;;;18.45;46.19
71735;BME280;59577;52.122;5.406;2023-05-16T08:11:34;102236.44;;;17.82;47.07
71735;BME280;59577;52.122;5.406;2023-05-16T08:14:02;102233.25;;;17.10;47.44
71735;BME280;59577;52.122;5.406;2023-05-16T08:16:28;102244.88;;;16.84;48.45
71735;BME280;59577;52.122;5.406;2023-05-16T08:18:55;102229.03;;;17.59;49.13
71735;BME280;59577;52.122;5.406;2023-05-16T08:21:21;102220.91;;;19.07;49.83
71735;BME280;59577;52.122;5.406;2023-05-16T08:23:48;102228.03;;;20.08;46.36
71735;BME280;59577;52.122;5.406;2023-05-16T08:26:16;102224.53;;;20.15;43.08
71735;BME280;59577;52.122;5.406;2023-05-16T08:28:43;102227.78;;;20.35;47.55
71735;BME280;59577;52.122;5.406;2023-05-16T08:31:09;102217.03;;;20.96;43.43
71735;BME280;59577;52.122;5.406;2023-05-16T08:33:36;102219.78;;;21.07;46.44
71735;BME280;59577;52.122;5.406;2023-05-16T08:36:03;102221.00;;;21.35;44.85
71735;BME280;59577;52.122;5.406;2023-05-16T08:38:29;102219.72;;;20.71;43.71
71735;BME280;59577;52.122;5.406;2023-05-16T08:40:56;102224.13;;;20.09;44.15
71735;BME280;59577;52.122;5.406;2023-05-16T08:43:23;102221.25;;;19.43;44.86
71735;BME280;59577;52.122;5.406;2023-05-16T08:45:49;102216.41;;;19.29;46.55
71735;BME280;59577;52.122;5.406;2023-05-16T08:48:18;102210.28;;;19.95;46.57
71735;BME280;59577;52.122;5.406;2023-05-16T08:50:48;102217.38;;;20.80;44.25
71735;BME280;59577;52.122;5.406;2023-05-16T08:53:20;102211.53;;;21.14;43.59
71735;BME280;59577;52.122;5.406;2023-05-16T08:55:48;102214.75;;;21.49;41.77
71735;BME280;59577;52.122;5.406;2023-05-16T08:58:15;102211.22;;;21.77;42.01
71735;BME280;59577;52.122;5.406;2023-05-16T09:00:43;102209.59;;;22.01;41.58
71735;BME280;59577;52.122;5.406;2023-05-16T09:03:10;102224.53;;;22.11;41.08
71735;BME280;59577;52.122;5.406;2023-05-16T09:05:37;102219.69;;;22.58;40.53
71735;BME280;59577;52.122;5.406;2023-05-16T09:08:04;102215.84;;;23.15;39.67
71735;BME280;59577;52.122;5.406;2023-05-16T09:10:31;102217.66;;;23.36;38.66
71735;BME280;59577;52.122;5.406;2023-05-16T09:12:57;102232.22;;;22.66;39.47
71735;BME280;59577;52.122;5.406;2023-05-16T09:15:30;102232.00;;;22.17;40.61
71735;BME280;59577;52.122;5.406;2023-05-16T09:17:59;102236.00;;;21.77;39.64
71735;BME280;59577;52.122;5.406;2023-05-16T09:20:27;102225.34;;;21.39;38.83
71735;BME280;59577;52.122;5.406;2023-05-16T09:22:55;102233.25;;;21.63;38.58
71735;BME280;59577;52.122;5.406;2023-05-16T09:25:29;102228.41;;;22.39;40.97
71735;BME280;59577;52.122;5.406;2023-05-16T09:27:59;102236.84;;;22.95;38.71
71735;BME280;59577;52.122;5.406;2023-05-16T09:30:31;102227.16;;;23.28;38.98
71735;BME280;59577;52.122;5.406;2023-05-16T09:33:00;102214.66;;;23.61;38.33
71735;BME280;59577;52.122;5.406;2023-05-16T09:35:27;102212.75;;;23.96;36.19
71735;BME280;59577;52.122;5.406;2023-05-16T09:37:56;102216.97;;;24.08;35.82
71735;BME280;59577;52.122;5.406;2023-05-16T09:40:23;102221.25;;;24.16;35.73
71735;BME280;59577;52.122;5.406;2023-05-16T09:43:16;102230.81;;;24.08;36.83
71735;BME280;59577;52.122;5.406;2023-05-16T09:45:46;102228.56;;;23.96;35.77
71735;BME280;59577;52.122;5.406;2023-05-16T09:48:13;102227.34;;;22.96;36.58
71735;BME280;59577;52.122;5.406;2023-05-16T09:50:46;102242.38;;;22.87;38.60
71735;BME280;59577;52.122;5.406;2023-05-16T09:53:14;102248.03;;;22.66;38.89
71735;BME280;59577;52.122;5.406;2023-05-16T09:55:41;102240.66;;;22.16;37.02
71735;BME280;59577;52.122;5.406;2023-05-16T09:58:07;102233.44;;;22.65;40.25
71735;BME280;59577;52.122;5.406;2023-05-16T10:00:34;102225.81;;;23.51;39.76
71735;BME280;59577;52.122;5.406;2023-05-16T10:03:01;102227.31;;;24.04;37.35
71735;BME280;59577;52.122;5.406;2023-05-16T10:05:31;102222.66;;;23.49;35.19
71735;BME280;59577;52.122;5.406;2023-05-16T10:07:58;102223.97;;;22.63;37.23
71735;BME280;59577;52.122;5.406;2023-05-16T10:10:27;102234.41;;;21.90;39.15
71735;BME280;59577;52.122;5.406;2023-05-16T10:12:57;102232.44;;;21.76;39.97
71735;BME280;59577;52.122;5.406;2023-05-16T10:15:25;102232.34;;;22.27;38.04
71735;BME280;59577;52.122;5.406;2023-05-16T10:17:54;102233.38;;;22.76;37.24
71735;BME280;59577;52.122;5.406;2023-05-16T10:20:22;102230.03;;;23.14;36.38
71735;BME280;59577;52.122;5.406;2023-05-16T10:22:52;102221.97;;;22.74;36.89
71735;BME280;59577;52.122;5.406;2023-05-16T10:25:30;102237.88;;;22.41;36.92
71735;BME280;59577;52.122;5.406;2023-05-16T10:27:58;102244.25;;;21.98;38.21
71735;BME280;59577;52.122;5.406;2023-05-16T10:30:25;102250.97;;;21.62;39.70
71735;BME280;59577;52.122;5.406;2023-05-16T10:32:52;102241.88;;;21.29;40.59
71735;BME280;59577;52.122;5.406;2023-05-16T10:35:19;102236.31;;;21.00;39.63
71735;BME280;59577;52.122;5.406;2023-05-16T10:37:48;102242.59;;;21.00;39.18
71735;BME280;59577;52.122;5.406;2023-05-16T10:40:16;102239.03;;;20.93;38.36
71735;BME280;59577;52.122;5.406;2023-05-16T10:42:59;102237.06;;;20.90;40.03
71735;BME280;59577;52.122;5.406;2023-05-16T10:45:26;102234.69;;;20.88;40.90
71735;BME280;59577;52.122;5.406;2023-05-16T10:47:58;102241.44;;;21.05;39.04
71735;BME280;59577;52.122;5.406;2023-05-16T10:50:39;102244.56;;;20.96;39.63
71735;BME280;59577;52.122;5.406;2023-05-16T10:53:21;102239.75;;;20.64;40.42
71735;BME280;59577;52.122;5.406;2023-05-16T11:01:20;102224.59;;;21.64;40.82
71735;BME280;59577;52.122;5.406;2023-05-16T11:11:45;102236.00;;;21.59;40.03
71735;BME280;59577;52.122;5.406;2023-05-16T11:14:39;102241.13;;;21.89;39.47
71735;BME280;59577;52.122;5.406;2023-05-16T11:17:22;102230.09;;;21.82;36.55
71735;BME280;59577;52.122;5.406;2023-05-16T11:19:51;102241.88;;;21.39;37.82
71735;BME280;59577;52.122;5.406;2023-05-16T11:25:01;102234.19;;;20.61;38.12
71735;BME280;59577;52.122;5.406;2023-05-16T11:27:33;102240.38;;;20.43;38.91
71735;BME280;59577;52.122;5.406;2023-05-16T11:32:34;102245.38;;;20.16;39.69
71735;BME280;59577;52.122;5.406;2023-05-16T11:35:03;102249.03;;;19.83;39.51
71735;BME280;59577;52.122;5.406;2023-05-16T11:37:30;102250.25;;;19.41;40.32
71735;BME280;59577;52.122;5.406;2023-05-16T11:39:59;102250.78;;;19.16;40.88
71735;BME280;59577;52.122;5.406;2023-05-16T11:42:32;102254.09;;;18.95;41.81
71735;BME280;59577;52.122;5.406;2023-05-16T11:45:10;102250.34;;;18.80;42.21
71735;BME280;59577;52.122;5.406;2023-05-16T11:47:40;102256.75;;;18.57;42.66
71735;BME280;59577;52.122;5.406;2023-05-16T11:50:12;102251.06;;;18.43;44.34
71735;BME280;59577;52.122;5.406;2023-05-16T11:52:45;102256.19;;;18.18;42.95
71735;BME280;59577;52.122;5.406;2023-05-16T11:55:12;102259.88;;;17.79;43.46
71735;BME280;59577;52.122;5.406;2023-05-16T11:57:54;102258.84;;;17.64;43.92
71735;BME280;59577;52.122;5.406;2023-05-16T12:00:24;102257.75;;;17.69;44.53
71735;BME280;59577;52.122;5.406;2023-05-16T12:02:53;102260.06;;;17.67;44.57
71735;BME280;59577;52.122;5.406;2023-05-16T12:05:20;102262.25;;;17.58;46.22
71735;BME280;59577;52.122;5.406;2023-05-16T12:07:52;102253.31;;;17.61;45.57
71735;BME280;59577;52.122;5.406;2023-05-16T12:10:20;102256.47;;;17.63;45.88
71735;BME280;59577;52.122;5.406;2023-05-16T12:12:48;102257.44;;;17.74;44.90
71735;BME280;59577;52.122;5.406;2023-05-16T12:15:18;102257.03;;;17.72;44.75
71735;BME280;59577;52.122;5.406;2023-05-16T12:17:45;102258.34;;;17.82;43.97
71735;BME280;59577;52.122;5.406;2023-05-16T12:20:13;102259.66;;;17.88;44.47
71735;BME280;59577;52.122;5.406;2023-05-16T12:22:43;102259.81;;;17.99;43.97
71735;BME280;59577;52.122;5.406;2023-05-16T12:25:20;102255.13;;;17.76;44.18
71735;BME280;59577;52.122;5.406;2023-05-16T12:27:47;102268.66;;;17.65;44.95
71735;BME280;59577;52.122;5.406;2023-05-16T12:30:16;102261.09;;;17.59;45.57
71735;BME280;59577;52.122;5.406;2023-05-16T12:32:43;102260.44;;;17.65;45.94
71735;BME280;59577;52.122;5.406;2023-05-16T12:35:10;102262.09;;;17.70;44.86
71735;BME280;59577;52.122;5.406;2023-05-16T12:37:38;102260.91;;;17.71;45.52
71735;BME280;59577;52.122;5.406;2023-05-16T12:40:08;102260.13;;;17.71;46.16
71735;BME280;59577;52.122;5.406;2023-05-16T12:42:36;102265.91;;;17.65;45.87
71735;BME280;59577;52.122;5.406;2023-05-16T12:45:03;102271.16;;;17.51;46.45
71735;BME280;59577;52.122;5.406;2023-05-16T12:47:35;102259.03;;;17.52;45.56
71735;BME280;59577;52.122;5.406;2023-05-16T12:50:02;102259.47;;;18.00;46.62
71735;BME280;59577;52.122;5.406;2023-05-16T12:52:34;102258.44;;;18.39;47.11
71735;BME280;59577;52.122;5.406;2023-05-16T12:55:03;102265.41;;;18.33;45.74
71735;BME280;59577;52.122;5.406;2023-05-16T12:57:30;102256.25;;;17.95;47.06
71735;BME280;59577;52.122;5.406;2023-05-16T13:00:00;102265.56;;;17.67;46.66
71735;BME280;59577;52.122;5.406;2023-05-16T13:02:26;102271.94;;;17.52;46.17
71735;BME280;59577;52.122;5.406;2023-05-16T13:04:53;102275.31;;;17.22;46.38
71735;BME280;59577;52.122;5.406;2023-05-16T13:07:20;102282.38;;;17.03;46.11
71735;BME280;59577;52.122;5.406;2023-05-16T13:09:46;102278.53;;;16.88;46.51
71735;BME280;59577;52.122;5.406;2023-05-16T13:12:13;102276.19;;;16.71;46.37
71735;BME280;59577;52.122;5.406;2023-05-16T13:14:39;102281.31;;;16.72;47.20
71735;BME280;59577;52.122;5.406;2023-05-16T13:17:09;102273.81;;;16.85;47.08
71735;BME280;59577;52.122;5.406;2023-05-16T13:19:37;102280.47;;;17.07;47.65
71735;BME280;59577;52.122;5.406;2023-05-16T13:22:03;102267.47;;;17.20;46.82
71735;BME280;59577;52.122;5.406;2023-05-16T13:24:30;102277.59;;;17.20;46.74